createdAt,value
2022-08-28T00:00:46.452Z,21.24
2022-08-28T00:03:15.595Z,21.31
2022-08-28T00:05:45.914Z,21.31
2022-08-28T00:08:16.677Z,21.01
2022-08-28T00:10:45.125Z,20.77
2022-08-28T00:13:18.867Z,20.91
2022-08-28T00:15:49.002Z,20.92
2022-08-28T00:18:17.934Z,20.93
2022-08-28T00:20:46.354Z,21.11
2022-08-28T00:23:16.684Z,21.19
2022-08-28T00:25:44.847Z,21.30
2022-08-28T00:28:23.647Z,21.33
2022-08-28T00:30:54.746Z,20.73
2022-08-28T00:33:25.440Z,21.00
2022-08-28T00:35:54.674Z,21.22
2022-08-28T00:38:24.417Z,21.29
2022-08-28T00:40:55.877Z,21.35
2022-08-28T00:43:37.458Z,21.37
2022-08-28T00:46:09.954Z,21.37
2022-08-28T00:48:37.910Z,21.38
2022-08-28T00:51:24.913Z,21.44
2022-08-28T00:53:58.589Z,21.47
2022-08-28T00:56:28.307Z,21.47
2022-08-28T00:59:02.898Z,21.49
2022-08-28T01:01:31.256Z,21.37
2022-08-28T01:03:59.230Z,21.37
2022-08-28T01:06:27.180Z,21.42
2022-08-28T01:08:55.438Z,21.42
2022-08-28T01:11:27.273Z,21.32
2022-08-28T01:13:56.855Z,21.30
2022-08-28T01:16:33.186Z,21.27
2022-08-28T01:19:02.837Z,21.28
2022-08-28T01:21:37.630Z,21.27
2022-08-28T01:24:09.697Z,21.30
2022-08-28T01:26:38.521Z,20.72
2022-08-28T01:29:08.486Z,20.78
2022-08-28T01:31:37.497Z,20.89
2022-08-28T01:34:06.293Z,20.81
2022-08-28T01:36:34.914Z,20.95
2022-08-28T01:39:09.256Z,21.08
2022-08-28T01:41:39.917Z,21.13
2022-08-28T01:44:07.957Z,21.19
2022-08-28T01:46:36.198Z,21.24
2022-08-28T01:49:05.210Z,21.28
2022-08-28T01:51:35.222Z,21.29
2022-08-28T01:54:07.586Z,21.29
2022-08-28T01:56:38.987Z,21.29
2022-08-28T01:59:09.566Z,21.28
2022-08-28T02:01:37.532Z,21.10
2022-08-28T02:04:05.704Z,21.02
2022-08-28T02:06:34.932Z,21.00
2022-08-28T02:09:02.955Z,21.08
2022-08-28T02:11:33.075Z,21.12
2022-08-28T02:14:02.209Z,21.13
2022-08-28T02:16:30.486Z,21.07
2022-08-28T02:18:58.742Z,21.08
2022-08-28T02:21:26.594Z,21.02
2022-08-28T02:23:54.671Z,20.83
2022-08-28T02:26:23.464Z,20.95
2022-08-28T02:28:52.742Z,20.99
2022-08-28T02:31:20.672Z,20.66
2022-08-28T02:33:48.571Z,20.83
2022-08-28T02:36:17.984Z,20.89
2022-08-28T02:38:47.434Z,20.94
2022-08-28T02:41:15.686Z,20.98
2022-08-28T02:43:43.772Z,21.00
2022-08-28T02:46:13.163Z,21.03
2022-08-28T02:48:41.766Z,21.06
2022-08-28T02:51:12.888Z,21.04
2022-08-28T02:53:42.520Z,21.06
2022-08-28T02:56:11.897Z,21.08
2022-08-28T02:58:40.719Z,21.11
2022-08-28T03:01:10.906Z,21.09
2022-08-28T03:03:41.632Z,21.02
2022-08-28T03:06:11.399Z,20.86
2022-08-28T03:08:39.540Z,20.96
2022-08-28T03:11:07.337Z,21.00
2022-08-28T03:13:35.308Z,21.08
2022-08-28T03:16:04.731Z,21.11
2022-08-28T03:18:33.103Z,21.10
2022-08-28T03:21:02.607Z,20.68
2022-08-28T03:23:31.792Z,20.88
2022-08-28T03:26:01.625Z,21.04
2022-08-28T03:28:33.348Z,21.10
2022-08-28T03:31:02.494Z,21.05
2022-08-28T03:33:30.490Z,21.05
2022-08-28T03:35:59.419Z,20.59
2022-08-28T03:38:29.181Z,20.88
2022-08-28T03:40:57.528Z,21.04
2022-08-28T03:43:27.349Z,21.15
2022-08-28T03:45:58.780Z,21.18
2022-08-28T03:48:28.521Z,21.09
2022-08-28T03:50:56.697Z,21.20
2022-08-28T03:53:25.993Z,21.25
2022-08-28T03:55:55.715Z,21.26
2022-08-28T03:58:24.278Z,21.21
2022-08-28T04:00:52.493Z,21.15
2022-08-28T04:03:20.563Z,20.55
2022-08-28T04:05:51.799Z,20.63
2022-08-28T04:08:22.584Z,20.43
2022-08-28T04:10:51.741Z,20.54
2022-08-28T04:13:22.159Z,20.82
2022-08-28T04:15:57.369Z,21.04
2022-08-28T04:18:26.101Z,21.09
2022-08-28T04:21:02.451Z,20.89
2022-08-28T04:23:30.487Z,20.90
2022-08-28T04:25:58.576Z,20.91
2022-08-28T04:28:28.685Z,20.93
2022-08-28T04:30:59.051Z,21.02
2022-08-28T04:33:28.975Z,21.11
2022-08-28T04:35:57.135Z,21.05
2022-08-28T04:38:25.401Z,20.91
2022-08-28T04:40:53.404Z,21.04
2022-08-28T04:43:21.404Z,20.76
2022-08-28T04:45:51.004Z,20.56
2022-08-28T04:48:19.223Z,20.71
2022-08-28T04:50:49.181Z,20.78
2022-08-28T04:53:21.372Z,20.84
2022-08-28T04:55:55.230Z,20.59
2022-08-28T04:58:24.029Z,20.23
2022-08-28T05:00:55.122Z,20.38
2022-08-28T05:03:23.676Z,20.40
2022-08-28T05:05:53.974Z,20.49
2022-08-28T05:08:27.767Z,20.57
2022-08-28T05:10:56.267Z,20.83
2022-08-28T05:13:24.253Z,20.92
2022-08-28T05:15:55.291Z,20.80
2022-08-28T05:18:24.268Z,20.94
2022-08-28T05:20:52.171Z,20.57
2022-08-28T05:23:22.142Z,20.76
2022-08-28T05:25:56.042Z,20.56
2022-08-28T05:28:25.288Z,20.73
2022-08-28T05:30:54.743Z,20.98
2022-08-28T05:33:25.798Z,20.85
2022-08-28T05:35:53.663Z,20.47
2022-08-28T05:38:21.722Z,20.81
2022-08-28T05:40:50.267Z,20.83
2022-08-28T05:43:19.154Z,20.92
2022-08-28T05:45:47.279Z,21.07
2022-08-28T05:48:16.619Z,20.90
2022-08-28T05:50:47.327Z,20.54
2022-08-28T05:53:17.614Z,20.51
2022-08-28T05:55:51.907Z,20.39
2022-08-28T05:58:34.669Z,20.42
2022-08-28T06:01:12.599Z,20.76
2022-08-28T06:03:46.032Z,20.04
2022-08-28T06:06:14.798Z,20.38
2022-08-28T06:08:58.104Z,20.48
2022-08-28T06:11:30.616Z,19.93
2022-08-28T06:14:02.374Z,20.18
2022-08-28T06:16:32.100Z,19.97
2022-08-28T06:19:01.603Z,19.99
2022-08-28T06:21:33.446Z,20.30
2022-08-28T06:24:01.532Z,20.37
2022-08-28T06:26:29.640Z,20.23
2022-08-28T06:29:01.365Z,20.30
2022-08-28T06:31:33.254Z,20.38
2022-08-28T06:34:03.059Z,20.64
2022-08-28T06:36:33.854Z,20.71
2022-08-28T06:39:04.342Z,20.90
2022-08-28T06:41:33.273Z,20.76
2022-08-28T06:44:01.382Z,20.71
2022-08-28T06:46:33.241Z,21.07
2022-08-28T06:49:02.843Z,20.78
2022-08-28T06:51:31.469Z,21.01
2022-08-28T06:53:59.508Z,20.96
2022-08-28T06:56:27.446Z,20.68
2022-08-28T06:58:57.341Z,20.60
2022-08-28T07:01:29.225Z,20.13
2022-08-28T07:04:00.461Z,20.60
2022-08-28T07:06:33.434Z,20.60
2022-08-28T07:09:01.474Z,20.57
2022-08-28T07:11:32.384Z,20.70
2022-08-28T07:14:01.332Z,20.79
2022-08-28T07:16:38.131Z,21.12
2022-08-28T07:19:08.096Z,21.12
2022-08-28T07:21:41.704Z,21.02
2022-08-28T07:24:11.089Z,20.73
2022-08-28T07:26:41.478Z,20.70
2022-08-28T07:29:11.638Z,20.67
2022-08-28T07:31:45.073Z,20.72
2022-08-28T07:34:15.490Z,20.23
2022-08-28T07:36:45.354Z,21.07
2022-08-28T07:39:15.191Z,20.78
2022-08-28T07:41:45.412Z,21.19
2022-08-28T07:44:36.065Z,21.85
2022-08-28T07:47:06.960Z,21.40
2022-08-28T07:49:40.476Z,21.20
2022-08-28T07:52:11.361Z,21.38
2022-08-28T07:54:40.586Z,21.12
2022-08-28T07:57:10.900Z,20.78
2022-08-28T07:59:39.869Z,21.52
2022-08-28T08:02:13.222Z,21.87
2022-08-28T08:04:41.516Z,21.60
2022-08-28T08:07:13.043Z,21.48
2022-08-28T08:09:43.103Z,21.50
2022-08-28T08:12:12.839Z,21.71
2022-08-28T08:14:43.100Z,21.97
2022-08-28T08:17:12.090Z,22.14
2022-08-28T08:19:40.967Z,22.39
2022-08-28T08:22:09.062Z,22.50
2022-08-28T08:24:41.325Z,21.82
2022-08-28T08:27:10.540Z,22.03
2022-08-28T08:29:39.448Z,21.64
2022-08-28T08:32:10.401Z,22.34
2022-08-28T08:34:42.474Z,21.62
2022-08-28T08:37:11.723Z,22.43
2022-08-28T08:39:42.646Z,21.47
2022-08-28T08:42:21.772Z,21.95
2022-08-28T08:44:51.922Z,22.63
2022-08-28T08:47:27.428Z,23.53
2022-08-28T08:49:58.164Z,23.95
2022-08-28T08:52:36.410Z,24.17
2022-08-28T08:55:16.109Z,24.28
2022-08-28T08:57:49.362Z,23.08
2022-08-28T09:00:19.069Z,22.97
2022-08-28T09:02:53.129Z,23.65
2022-08-28T09:05:25.023Z,23.93
2022-08-28T09:07:57.606Z,24.19
2022-08-28T09:10:36.850Z,24.47
2022-08-28T09:13:13.616Z,24.52
2022-08-28T09:15:50.518Z,24.36
2022-08-28T09:18:22.345Z,24.53
2022-08-28T09:20:52.477Z,25.03
2022-08-28T09:23:22.342Z,26.23
2022-08-28T09:25:55.997Z,24.32
2022-08-28T09:28:31.724Z,23.54
2022-08-28T09:31:03.744Z,24.29
2022-08-28T09:33:41.886Z,25.03
2022-08-28T09:36:32.287Z,25.80
2022-08-28T09:39:10.132Z,24.63
2022-08-28T09:42:01.231Z,25.30
2022-08-28T09:44:32.560Z,24.35
2022-08-28T09:47:01.172Z,24.79
2022-08-28T09:49:31.444Z,26.20
2022-08-28T09:52:01.725Z,27.10
2022-08-28T09:54:36.327Z,27.00
2022-08-28T09:57:05.793Z,24.96
2022-08-28T09:59:33.917Z,23.73
2022-08-28T10:02:20.846Z,24.48
2022-08-28T10:05:01.473Z,24.15
2022-08-28T10:07:38.409Z,23.92
2022-08-28T10:10:18.918Z,24.54
2022-08-28T10:13:01.534Z,24.51
2022-08-28T10:15:42.927Z,25.22
2022-08-28T10:18:35.158Z,25.55
2022-08-28T10:21:13.891Z,25.93
2022-08-28T10:23:56.977Z,25.06
2022-08-28T10:26:36.269Z,25.78
2022-08-28T10:29:25.001Z,26.68
2022-08-28T10:32:00.566Z,26.77
2022-08-28T10:34:40.934Z,26.35
2022-08-28T10:37:20.714Z,24.16
2022-08-28T10:39:55.171Z,25.24
2022-08-28T10:42:36.330Z,25.61
2022-08-28T10:45:12.429Z,25.96
2022-08-28T10:47:50.385Z,26.06
2022-08-28T10:50:23.725Z,26.13
2022-08-28T10:52:58.345Z,26.08
2022-08-28T10:55:32.349Z,26.80
2022-08-28T10:58:04.506Z,27.49
2022-08-28T11:00:51.361Z,27.32
2022-08-28T11:03:33.871Z,25.74
2022-08-28T11:06:08.504Z,25.81
2022-08-28T11:08:38.262Z,24.54
2022-08-28T11:11:12.709Z,24.56
2022-08-28T11:13:58.175Z,24.91
2022-08-28T11:16:40.373Z,25.58
2022-08-28T11:19:55.407Z,26.55
2022-08-28T11:22:27.975Z,27.18
2022-08-28T11:25:09.605Z,26.22
2022-08-28T11:27:39.570Z,26.23
2022-08-28T11:30:32.918Z,27.13
2022-08-28T11:33:09.350Z,27.64
2022-08-28T11:35:44.820Z,26.08
2022-08-28T11:38:16.420Z,26.91
2022-08-28T11:40:54.932Z,25.24
2022-08-28T11:43:35.934Z,24.82
2022-08-28T11:46:13.706Z,25.01
2022-08-28T11:48:53.885Z,25.51
2022-08-28T11:51:57.251Z,26.62
2022-08-28T11:54:40.144Z,27.73
2022-08-28T11:57:15.100Z,26.50
2022-08-28T12:00:06.122Z,28.00
2022-08-28T12:02:59.109Z,28.32
2022-08-28T12:05:45.425Z,28.13
2022-08-28T12:08:14.557Z,26.39
2022-08-28T12:10:59.823Z,26.48
2022-08-28T12:13:48.662Z,25.73
2022-08-28T12:16:16.611Z,25.21
2022-08-28T12:19:01.233Z,24.98
2022-08-28T12:21:36.365Z,26.05
2022-08-28T12:24:09.980Z,26.12
2022-08-28T12:26:48.730Z,26.07
2022-08-28T12:29:29.480Z,25.99
2022-08-28T12:32:18.774Z,26.35
2022-08-28T12:35:12.351Z,25.72
2022-08-28T12:37:52.480Z,25.83
2022-08-28T12:40:27.360Z,26.22
2022-08-28T12:42:58.224Z,27.30
2022-08-28T12:45:30.415Z,27.68
2022-08-28T12:48:02.086Z,27.60
2022-08-28T12:50:34.829Z,26.50
2022-08-28T12:53:07.211Z,28.48
2022-08-28T12:55:39.646Z,27.60
2022-08-28T12:58:13.869Z,26.85
2022-08-28T13:00:53.794Z,25.87
2022-08-28T13:03:22.392Z,25.62
2022-08-28T13:05:58.697Z,25.41
2022-08-28T13:08:29.384Z,25.74
2022-08-28T13:10:59.067Z,26.10
2022-08-28T13:13:34.650Z,26.45
2022-08-28T13:16:04.817Z,27.24
2022-08-28T13:18:38.609Z,27.64
2022-08-28T13:21:35.064Z,27.29
2022-08-28T13:24:40.723Z,27.01
2022-08-28T13:27:19.064Z,26.10
2022-08-28T13:29:59.878Z,26.34
2022-08-28T13:32:30.232Z,26.55
2022-08-28T13:35:48.949Z,27.34
2022-08-28T13:38:18.065Z,27.20
2022-08-28T13:40:57.872Z,27.87
2022-08-28T13:43:28.363Z,27.41
2022-08-28T13:45:56.798Z,27.27
2022-08-28T13:48:26.920Z,27.85
2022-08-28T13:50:59.604Z,28.16
2022-08-28T13:53:29.697Z,27.41
2022-08-28T13:56:01.461Z,26.99
2022-08-28T13:58:31.652Z,27.25
2022-08-28T14:01:00.702Z,27.16
2022-08-28T14:03:37.585Z,26.67
2022-08-28T14:06:09.149Z,27.39
2022-08-28T14:08:37.118Z,26.59
2022-08-28T14:11:07.652Z,27.22
2022-08-28T14:13:35.909Z,26.46
2022-08-28T14:16:06.756Z,26.99
2022-08-28T14:18:34.973Z,27.17
2022-08-28T14:21:06.305Z,27.42
2022-08-28T14:23:34.689Z,26.17
2022-08-28T14:26:06.989Z,27.31
2022-08-28T14:28:35.053Z,26.72
2022-08-28T14:31:09.930Z,26.61
2022-08-28T14:33:40.411Z,26.48
2022-08-28T14:36:16.018Z,27.40
2022-08-28T14:38:43.918Z,27.27
2022-08-28T14:41:14.829Z,27.60
2022-08-28T14:43:42.871Z,27.80
2022-08-28T14:46:16.478Z,27.39
2022-08-28T14:48:44.874Z,27.30
2022-08-28T14:51:12.784Z,26.49
2022-08-28T14:53:40.965Z,26.66
2022-08-28T14:56:10.509Z,27.40
2022-08-28T14:58:39.881Z,27.44
2022-08-28T15:01:08.256Z,26.65
2022-08-28T15:03:38.715Z,27.04
2022-08-28T15:06:09.746Z,27.12
2022-08-28T15:08:41.634Z,26.67
2022-08-28T15:11:14.306Z,26.34
2022-08-28T15:13:49.246Z,26.38
2022-08-28T15:16:19.931Z,26.65
2022-08-28T15:18:48.591Z,26.63
2022-08-28T15:21:17.866Z,26.11
2022-08-28T15:23:46.228Z,26.76
2022-08-28T15:26:15.486Z,26.34
2022-08-28T15:28:43.618Z,26.64
2022-08-28T15:31:13.638Z,26.68
2022-08-28T15:33:45.245Z,27.24
2022-08-28T15:36:13.567Z,26.99
2022-08-28T15:38:59.121Z,26.72
2022-08-28T15:41:27.038Z,27.52
2022-08-28T15:43:57.118Z,26.96
2022-08-28T15:46:26.320Z,27.31
2022-08-28T15:48:54.535Z,27.14
2022-08-28T15:51:26.054Z,26.29
2022-08-28T15:53:54.712Z,26.60
2022-08-28T15:56:23.366Z,26.32
2022-08-28T15:58:51.955Z,26.38
2022-08-28T16:01:20.243Z,26.54
2022-08-28T16:03:49.623Z,26.21
2022-08-28T16:06:20.682Z,26.13
2022-08-28T16:08:50.350Z,26.26
2022-08-28T16:11:19.820Z,25.65
2022-08-28T16:13:47.993Z,25.77
2022-08-28T16:16:16.209Z,25.76
2022-08-28T16:18:44.668Z,25.37
2022-08-28T16:21:14.189Z,25.95
2022-08-28T16:23:42.093Z,25.53
2022-08-28T16:26:11.630Z,25.35
2022-08-28T16:28:39.549Z,25.45
2022-08-28T16:31:18.927Z,25.90
2022-08-28T16:33:47.505Z,25.70
2022-08-28T16:36:18.592Z,25.39
2022-08-28T16:38:49.670Z,25.33
2022-08-28T16:41:28.727Z,25.36
2022-08-28T16:43:59.905Z,25.52
2022-08-28T16:46:28.378Z,25.36
2022-08-28T16:48:56.325Z,25.49
2022-08-28T16:51:26.916Z,25.33
2022-08-28T16:53:55.557Z,25.44
2022-08-28T16:56:24.977Z,25.25
2022-08-28T16:58:53.447Z,25.41
2022-08-28T17:01:24.674Z,25.14
2022-08-28T17:03:53.294Z,25.12
2022-08-28T17:06:24.389Z,25.19
2022-08-28T17:08:57.181Z,25.05
2022-08-28T17:11:26.268Z,25.05
2022-08-28T17:13:55.291Z,25.13
2022-08-28T17:16:25.358Z,25.41
2022-08-28T17:18:53.630Z,25.12
2022-08-28T17:21:39.359Z,25.02
2022-08-28T17:24:09.300Z,24.98
2022-08-28T17:26:37.292Z,25.05
2022-08-28T17:29:05.546Z,25.13
2022-08-28T17:31:33.627Z,24.87
2022-08-28T17:34:01.889Z,24.81
2022-08-28T17:36:33.576Z,24.95
2022-08-28T17:39:03.422Z,24.73
2022-08-28T17:41:34.096Z,24.70
2022-08-28T17:44:02.272Z,25.14
2022-08-28T17:46:35.267Z,24.90
2022-08-28T17:49:05.672Z,24.62
2022-08-28T17:51:41.971Z,24.91
2022-08-28T17:54:12.995Z,24.95
2022-08-28T17:56:42.965Z,24.61
2022-08-28T17:59:11.408Z,24.40
2022-08-28T18:01:40.342Z,24.61
2022-08-28T18:04:09.035Z,24.64
2022-08-28T18:06:37.373Z,24.38
2022-08-28T18:09:05.573Z,24.38
2022-08-28T18:11:33.776Z,24.23
2022-08-28T18:14:03.233Z,24.37
2022-08-28T18:16:33.813Z,24.29
2022-08-28T18:19:03.772Z,24.16
2022-08-28T18:21:34.571Z,24.01
2022-08-28T18:24:02.621Z,24.10
2022-08-28T18:26:30.713Z,24.24
2022-08-28T18:28:59.360Z,24.07
2022-08-28T18:31:28.804Z,24.16
2022-08-28T18:33:56.903Z,23.76
2022-08-28T18:36:24.842Z,23.70
2022-08-28T18:38:53.767Z,23.65
2022-08-28T18:41:22.171Z,23.83
2022-08-28T18:44:04.739Z,23.69
2022-08-28T18:46:34.753Z,23.60
2022-08-28T18:49:02.804Z,24.04
2022-08-28T18:51:32.337Z,24.14
2022-08-28T18:54:00.974Z,24.16
2022-08-28T18:56:32.265Z,24.14
2022-08-28T18:59:01.917Z,23.92
2022-08-28T19:01:30.011Z,23.97
2022-08-28T19:03:59.410Z,24.03
2022-08-28T19:06:27.318Z,23.99
2022-08-28T19:08:55.453Z,24.00
2022-08-28T19:11:23.415Z,23.99
2022-08-28T19:13:51.472Z,23.82
2022-08-28T19:16:22.213Z,23.58
2022-08-28T19:18:51.480Z,23.63
2022-08-28T19:21:22.679Z,23.54
2022-08-28T19:23:55.940Z,23.49
2022-08-28T19:26:25.620Z,23.47
2022-08-28T19:28:53.911Z,23.48
2022-08-28T19:31:22.997Z,23.28
2022-08-28T19:33:51.702Z,23.08
2022-08-28T19:36:19.772Z,23.03
2022-08-28T19:38:49.172Z,23.12
2022-08-28T19:41:17.638Z,23.15
2022-08-28T19:43:48.645Z,22.88
2022-08-28T19:46:19.820Z,22.88
2022-08-28T19:48:51.388Z,22.74
2022-08-28T19:51:24.893Z,22.73
2022-08-28T19:53:58.205Z,22.85
2022-08-28T19:56:27.910Z,22.58
2022-08-28T19:58:58.469Z,22.65
2022-08-28T20:01:29.392Z,22.57
2022-08-28T20:03:58.039Z,22.54
2022-08-28T20:06:26.200Z,22.24
2022-08-28T20:08:55.856Z,22.13
2022-08-28T20:11:30.741Z,22.44
2022-08-28T20:14:04.785Z,22.58
2022-08-28T20:16:35.166Z,22.49
2022-08-28T20:19:03.927Z,22.35
2022-08-28T20:21:37.103Z,22.32
2022-08-28T20:24:10.926Z,22.36
2022-08-28T20:26:38.965Z,22.33
2022-08-28T20:29:08.517Z,22.37
2022-08-28T20:31:40.331Z,22.41
2022-08-28T20:34:09.105Z,22.36
2022-08-28T20:36:37.108Z,22.14
2022-08-28T20:39:07.194Z,22.01
2022-08-28T20:41:36.936Z,22.09
2022-08-28T20:44:06.359Z,22.01
2022-08-28T20:46:39.815Z,22.05
2022-08-28T20:49:09.893Z,21.84
2022-08-28T20:51:57.666Z,21.34
2022-08-28T20:54:30.062Z,21.24
2022-08-28T20:57:03.539Z,21.47
2022-08-28T20:59:39.377Z,21.47
2022-08-28T21:02:10.955Z,21.52
2022-08-28T21:04:40.458Z,21.55
2022-08-28T21:07:09.427Z,21.64
2022-08-28T21:10:05.283Z,21.65
2022-08-28T21:12:26.592Z,21.65
2022-08-28T21:14:54.595Z,21.58
2022-08-28T21:17:29.703Z,21.57
2022-08-28T21:20:01.134Z,21.20
2022-08-28T21:22:31.441Z,21.25
2022-08-28T21:24:59.860Z,21.09
2022-08-28T21:27:29.579Z,21.13
2022-08-28T21:29:58.290Z,21.18
2022-08-28T21:32:27.322Z,21.28
2022-08-28T21:34:55.452Z,21.34
2022-08-28T21:37:24.181Z,21.38
2022-08-28T21:39:52.173Z,21.30
2022-08-28T21:42:21.852Z,21.37
2022-08-28T21:44:51.366Z,21.43
2022-08-28T21:47:21.404Z,21.39
2022-08-28T21:49:50.149Z,21.37
2022-08-28T21:52:18.222Z,21.35
2022-08-28T21:54:46.146Z,20.92
2022-08-28T21:57:14.380Z,21.12
2022-08-28T21:59:45.293Z,20.76
2022-08-28T22:02:14.730Z,21.02
2022-08-28T22:04:42.708Z,21.22
2022-08-28T22:07:11.963Z,21.12
2022-08-28T22:09:39.839Z,21.20
2022-08-28T22:12:08.992Z,21.18
2022-08-28T22:14:37.454Z,20.89
2022-08-28T22:17:10.646Z,21.07
2022-08-28T22:19:41.773Z,21.19
2022-08-28T22:22:27.696Z,21.27
2022-08-28T22:24:56.364Z,21.22
2022-08-28T22:27:24.383Z,21.07
2022-08-28T22:29:52.260Z,21.10
2022-08-28T22:32:25.396Z,20.93
2022-08-28T22:34:55.742Z,20.90
2022-08-28T22:37:24.986Z,20.76
2022-08-28T22:39:53.156Z,20.81
2022-08-28T22:42:21.075Z,20.40
2022-08-28T22:44:48.962Z,20.54
2022-08-28T22:47:18.858Z,20.65
2022-08-28T22:49:49.781Z,20.40
2022-08-28T22:52:22.131Z,20.01
2022-08-28T22:54:53.069Z,19.93
2022-08-28T22:57:21.347Z,20.27
2022-08-28T22:59:51.674Z,20.23
2022-08-28T23:02:20.964Z,20.37
2022-08-28T23:04:52.025Z,20.24
2022-08-28T23:07:20.388Z,20.37
2022-08-28T23:09:49.631Z,20.39
2022-08-28T23:12:18.010Z,20.40
2022-08-28T23:14:48.647Z,20.44
2022-08-28T23:17:17.207Z,20.50
2022-08-28T23:19:48.041Z,20.48
2022-08-28T23:22:17.019Z,20.49
2022-08-28T23:24:46.277Z,20.45
2022-08-28T23:27:35.478Z,20.38
2022-08-28T23:30:03.688Z,20.33
2022-08-28T23:32:31.610Z,19.96
2022-08-28T23:35:02.192Z,20.07
2022-08-28T23:37:36.245Z,20.08
2022-08-28T23:40:05.096Z,19.86
2022-08-28T23:42:38.048Z,19.33
2022-08-28T23:45:07.326Z,19.58
2022-08-28T23:47:40.331Z,19.35
2022-08-28T23:50:11.710Z,19.04
2022-08-28T23:52:39.734Z,19.43
2022-08-28T23:55:10.685Z,19.39
2022-08-28T23:57:40.159Z,19.54
